Time;durP1;ratioP1;P1;durP2;ratioP2;P2;SDS_P1;SDS_P2;PMS_P1;PMS_P2;Temp;Humidity;BMP_temperature;BMP_pressure;BME280_temperature;BME280_humidity;BME280_pressure;Samples;Min_cycle;Max_cycle;Signal;HPM_P1;HPM_P2
2023/03/13 00:01:24;;;;;;;6.85;1.25;;;15.60;68.90;;;;;;2522793;54;20922;-72
2023/03/13 00:03:51;;;;;;;2.80;0.90;;;15.60;68.50;;;;;;2288565;55;21751;-68
2023/03/13 00:06:18;;;;;;;4.68;1.23;;;15.60;69.00;;;;;;2521947;54;20962;-70
2023/03/13 00:08:44;;;;;;;6.43;1.40;;;15.60;69.00;;;;;;2523289;54;21388;-70
2023/03/13 00:11:11;;;;;;;7.07;1.70;;;15.60;69.00;;;;;;2288257;55;21021;-70
2023/03/13 00:13:37;;;;;;;4.25;1.00;;;15.60;68.90;;;;;;2288393;55;20946;-69
2023/03/13 00:16:11;;;;;;;2.33;0.80;;;15.60;69.10;;;;;;2288394;55;21779;-69
2023/03/13 00:18:38;;;;;;;4.22;0.82;;;15.60;68.60;;;;;;2523332;54;21744;-71
2023/03/13 00:21:08;;;;;;;4.12;1.15;;;15.70;69.10;;;;;;2523054;54;21006;-70
2023/03/13 00:23:35;;;;;;;3.53;0.77;;;15.60;68.90;;;;;;2523345;54;20993;-72
2023/03/13 00:26:08;;;;;;;3.20;0.82;;;15.60;68.90;;;;;;2522912;54;21045;-68
2023/03/13 00:28:37;;;;;;;3.95;0.80;;;15.70;68.40;;;;;;2523606;54;21006;-68
2023/03/13 00:31:29;;;;;;;2.72;0.80;;;15.70;69.80;;;;;;2523045;54;20997;-68
2023/03/13 00:33:59;;;;;;;3.00;0.63;;;15.70;67.40;;;;;;2290815;55;21079;-69
2023/03/13 00:36:30;;;;;;;3.90;0.88;;;15.70;68.80;;;;;;2518803;54;21509;-71
2023/03/13 00:38:57;;;;;;;3.40;0.90;;;15.70;68.70;;;;;;2288506;55;20977;-68
2023/03/13 00:41:24;;;;;;;2.67;0.80;;;15.80;69.20;;;;;;2523408;54;21947;-71
2023/03/13 00:43:54;;;;;;;3.58;1.08;;;15.80;69.20;;;;;;2291018;55;21011;-71
2023/03/13 00:46:22;;;;;;;2.08;0.60;;;15.70;69.20;;;;;;2284886;55;20976;-70
2023/03/13 00:48:51;;;;;;;3.53;0.85;;;15.80;69.30;;;;;;2287782;55;21557;-68
2023/03/13 00:51:18;;;;;;;2.65;0.68;;;15.80;69.40;;;;;;2287563;55;20979;-69
2023/03/13 00:53:44;;;;;;;4.37;0.73;;;15.80;69.40;;;;;;2289049;55;21042;-71
2023/03/13 00:56:12;;;;;;;3.25;0.77;;;15.90;69.50;;;;;;2522940;54;21046;-69
2023/03/13 00:58:39;;;;;;;3.45;0.80;;;15.90;69.50;;;;;;2289310;55;20978;-71
2023/03/13 01:01:21;;;;;;;3.60;0.80;;;15.90;69.50;;;;;;2288723;55;21456;-69
2023/03/13 01:03:51;;;;;;;3.23;0.70;;;15.90;68.90;;;;;;2290993;55;21593;-69
2023/03/13 01:06:19;;;;;;;4.60;0.90;;;15.90;69.20;;;;;;2523029;54;20950;-70
2023/03/13 01:08:46;;;;;;;2.20;0.70;;;16.00;69.60;;;;;;2288870;55;21018;-68
2023/03/13 01:11:15;;;;;;;3.05;0.68;;;16.00;69.60;;;;;;2288705;55;21059;-69
2023/03/13 01:13:41;;;;;;;4.03;0.85;;;16.00;69.30;;;;;;2521912;54;21001;-70
2023/03/13 01:16:18;;;;;;;2.40;0.80;;;16.00;69.50;;;;;;2288729;55;21040;-68
2023/03/13 01:18:46;;;;;;;4.32;0.70;;;16.10;68.70;;;;;;2289802;55;20998;-69
2023/03/13 01:21:13;;;;;;;4.10;0.80;;;16.10;69.50;;;;;;2288501;55;21447;-68
2023/03/13 01:23:39;;;;;;;4.10;0.60;;;16.10;69.50;;;;;;2288547;55;21009;-68
2023/03/13 01:26:06;;;;;;;2.03;0.57;;;16.10;69.50;;;;;;2522674;54;20985;-70
2023/03/13 01:28:33;;;;;;;2.28;0.55;;;16.20;69.60;;;;;;2286487;55;20970;-72
2023/03/13 01:30:59;;;;;;;2.67;0.60;;;16.20;69.60;;;;;;2288240;55;20941;-68
2023/03/13 01:33:25;;;;;;;2.00;0.60;;;16.20;69.60;;;;;;2521255;54;21151;-72
2023/03/13 01:35:52;;;;;;;1.90;0.60;;;16.20;69.60;;;;;;2284744;55;20989;-70
2023/03/13 01:38:18;;;;;;;1.45;0.43;;;16.20;69.60;;;;;;2522176;54;21540;-69
2023/03/13 01:40:48;;;;;;;2.65;0.70;;;16.30;69.60;;;;;;2288607;55;21001;-68
2023/03/13 01:43:25;;;;;;;1.42;0.57;;;16.30;69.20;;;;;;2288106;56;21006;-68
2023/03/13 01:46:53;;;;;;;4.87;1.23;;;16.30;69.00;;;;;;2288494;55;21006;-69
2023/03/13 01:49:34;;;;;;;4.65;1.12;;;16.30;67.50;;;;;;2287566;55;21371;-69
2023/03/13 01:52:12;;;;;;;2.35;0.70;;;16.30;68.70;;;;;;2522485;54;20910;-69
2023/03/13 02:01:27;;;;;;;2.70;0.65;;;16.30;69.70;;;;;;2288419;55;20987;-70
2023/03/13 02:03:53;;;;;;;2.83;0.80;;;16.30;67.80;;;;;;2288840;55;20969;-71
2023/03/13 02:06:19;;;;;;;2.62;0.60;;;16.40;69.80;;;;;;2288592;55;21002;-69
2023/03/13 02:08:50;;;;;;;2.67;0.60;;;16.30;69.60;;;;;;2289338;55;21652;-70
2023/03/13 02:12:18;;;;;;;2.90;0.70;;;16.30;69.40;;;;;;2288351;55;21872;-69
2023/03/13 02:14:44;;;;;;;2.12;0.50;;;16.30;67.60;;;;;;2523411;54;21438;-69
2023/03/13 02:17:10;;;;;;;2.05;0.60;;;16.20;69.60;;;;;;2287656;55;21081;-68
2023/03/13 02:19:40;;;;;;;2.00;0.60;;;16.20;69.60;;;;;;2286854;55;21018;-69
2023/03/13 02:25:47;;;;;;;2.33;0.70;;;16.20;69.60;;;;;;2288533;55;21053;-68
2023/03/13 02:28:33;;;;;;;1.42;0.47;;;16.20;68.10;;;;;;2288242;55;21359;-69
2023/03/13 02:31:01;;;;;;;2.15;0.62;;;16.20;68.70;;;;;;2287110;56;21039;-69
2023/03/13 02:33:38;;;;;;;1.85;0.50;;;16.10;69.80;;;;;;2521559;54;20962;-71
2023/03/13 02:36:04;;;;;;;3.10;0.60;;;16.10;69.60;;;;;;2287105;56;21293;-69
2023/03/13 02:38:32;;;;;;;2.87;0.80;;;16.10;69.90;;;;;;2286863;55;21359;-71
2023/03/13 02:40:59;;;;;;;1.98;0.60;;;16.10;69.80;;;;;;2521372;54;21410;-69
2023/03/13 02:43:30;;;;;;;2.25;0.88;;;16.10;69.90;;;;;;2286754;55;20974;-68
2023/03/13 02:46:31;;;;;;;3.12;1.02;;;16.10;69.60;;;;;;2287097;55;21454;-68
2023/03/13 02:48:58;;;;;;;2.53;0.80;;;16.10;68.40;;;;;;2288282;55;21041;-69
2023/03/13 02:51:30;;;;;;;2.55;0.77;;;16.10;70.10;;;;;;2521035;54;21407;-69
2023/03/13 02:53:59;;;;;;;7.45;1.15;;;16.10;69.70;;;;;;2287235;55;21387;-71
2023/03/13 02:56:26;;;;;;;2.08;0.57;;;16.10;70.00;;;;;;2286990;55;20950;-67
2023/03/13 02:58:52;;;;;;;2.28;0.60;;;16.10;69.90;;;;;;2286988;55;21572;-71
2023/03/13 03:01:18;;;;;;;3.78;0.77;;;16.10;70.00;;;;;;2521253;54;21034;-69
2023/03/13 03:03:45;;;;;;;1.75;0.65;;;16.20;70.00;;;;;;2287410;55;21012;-71
2023/03/13 03:06:11;;;;;;;2.25;0.70;;;16.20;70.10;;;;;;2286776;55;21740;-69
2023/03/13 03:08:40;;;;;;;3.60;0.90;;;16.20;70.00;;;;;;2286737;55;20949;-68
2023/03/13 03:11:06;;;;;;;3.05;0.80;;;16.20;69.90;;;;;;2521468;54;20961;-68
2023/03/13 03:13:34;;;;;;;2.00;0.60;;;16.20;69.90;;;;;;2287199;55;20962;-68
2023/03/13 03:16:07;;;;;;;2.22;0.80;;;16.20;69.60;;;;;;2286878;55;20998;-69
2023/03/13 03:18:34;;;;;;;3.22;0.80;;;16.20;69.20;;;;;;2286864;55;21077;-68
2023/03/13 03:21:01;;;;;;;2.45;0.60;;;16.20;69.30;;;;;;2286914;55;20998;-68
2023/03/13 03:23:27;;;;;;;1.50;0.60;;;16.20;69.40;;;;;;2520982;54;21435;-67
2023/03/13 03:25:53;;;;;;;2.53;0.60;;;16.20;69.50;;;;;;2516952;54;20935;-71
2023/03/13 03:28:20;;;;;;;2.15;0.70;;;16.20;69.50;;;;;;2285540;55;21101;-70
2023/03/13 03:30:46;;;;;;;2.47;0.70;;;16.20;69.30;;;;;;2288863;55;20953;-69
2023/03/13 03:33:14;;;;;;;2.87;0.80;;;16.20;69.30;;;;;;2288497;55;20983;-67
2023/03/13 03:35:40;;;;;;;1.45;0.60;;;16.30;69.60;;;;;;2288843;55;21445;-67
2023/03/13 03:38:07;;;;;;;1.33;0.50;;;16.30;69.50;;;;;;2288397;55;21038;-69
2023/03/13 03:40:33;;;;;;;1.55;0.60;;;16.20;69.40;;;;;;2522622;54;20985;-70
2023/03/13 03:43:00;;;;;;;2.08;0.60;;;16.30;69.60;;;;;;2523059;54;21013;-68
2023/03/13 03:45:26;;;;;;;3.22;0.70;;;16.20;69.50;;;;;;2288004;55;20910;-69
2023/03/13 03:47:52;;;;;;;2.25;0.88;;;16.20;69.50;;;;;;2522841;54;21553;-69
2023/03/13 03:50:19;;;;;;;1.02;0.40;;;16.20;69.40;;;;;;2288332;55;21001;-70
2023/03/13 03:52:46;;;;;;;1.90;0.60;;;16.20;69.60;;;;;;2289022;55;20930;-70
2023/03/13 03:55:12;;;;;;;1.75;0.52;;;16.30;69.80;;;;;;2522766;54;20973;-71
2023/03/13 03:57:39;;;;;;;0.82;0.35;;;16.30;69.70;;;;;;2516680;54;21488;-71
2023/03/13 04:00:06;;;;;;;1.98;0.40;;;16.20;69.80;;;;;;2515917;54;21006;-68
2023/03/13 04:02:33;;;;;;;1.80;0.47;;;16.30;69.90;;;;;;2288650;55;21051;-68
2023/03/13 04:04:59;;;;;;;1.92;0.50;;;16.30;70.10;;;;;;2523245;54;20941;-69
2023/03/13 04:07:25;;;;;;;2.67;0.60;;;16.30;70.00;;;;;;2288668;55;20997;-70
2023/03/13 04:09:51;;;;;;;2.75;0.60;;;16.30;69.90;;;;;;2524078;54;21387;-71
2023/03/13 04:12:18;;;;;;;2.42;0.73;;;16.30;70.00;;;;;;2523103;54;20978;-71
2023/03/13 04:14:44;;;;;;;1.37;0.50;;;16.30;69.80;;;;;;2288713;55;21034;-69
2023/03/13 04:17:10;;;;;;;1.65;0.50;;;16.30;69.90;;;;;;2523544;54;21818;-71
2023/03/13 04:19:39;;;;;;;1.73;0.75;;;16.30;70.00;;;;;;2287784;55;20941;-69
2023/03/13 04:22:06;;;;;;;1.80;0.55;;;16.30;69.90;;;;;;2523454;54;21649;-69
2023/03/13 04:24:33;;;;;;;1.50;0.47;;;16.40;69.70;;;;;;2288962;55;20968;-72
2023/03/13 04:27:02;;;;;;;2.42;0.60;;;16.40;69.90;;;;;;2291962;55;20941;-67
2023/03/13 04:29:28;;;;;;;3.50;1.15;;;16.40;69.80;;;;;;2515681;54;20985;-68
2023/03/13 04:31:54;;;;;;;2.53;0.77;;;16.40;69.70;;;;;;2288414;55;21001;-68
2023/03/13 04:34:22;;;;;;;3.50;1.37;;;16.40;69.70;;;;;;2288456;55;20953;-66
2023/03/13 04:36:48;;;;;;;3.08;1.20;;;16.40;69.50;;;;;;2523662;54;20953;-67
2023/03/13 04:39:17;;;;;;;2.22;0.80;;;16.40;69.70;;;;;;2523287;54;21711;-67
2023/03/13 04:41:44;;;;;;;1.80;0.60;;;16.40;69.50;;;;;;2523242;54;21060;-67
2023/03/13 04:44:11;;;;;;;1.70;0.60;;;16.30;69.60;;;;;;2522336;54;20974;-68
2023/03/13 04:46:37;;;;;;;1.12;0.40;;;16.40;69.50;;;;;;2288461;55;20968;-69
2023/03/13 04:49:03;;;;;;;2.35;0.55;;;16.30;69.50;;;;;;2520938;54;21769;-70
2023/03/13 04:51:33;;;;;;;3.15;0.60;;;16.30;69.50;;;;;;2287161;55;21012;-70
2023/03/13 04:53:59;;;;;;;1.52;0.55;;;16.40;69.70;;;;;;2523187;54;21002;-71
2023/03/13 04:56:26;;;;;;;1.42;0.50;;;16.30;69.50;;;;;;2522583;54;21006;-69
2023/03/13 04:59:09;;;;;;;0.95;0.40;;;16.30;69.40;;;;;;2288395;55;20990;-66
2023/03/13 05:01:36;;;;;;;1.60;0.40;;;16.30;69.60;;;;;;2288325;55;21104;-69
2023/03/13 05:04:02;;;;;;;1.75;0.40;;;16.30;69.60;;;;;;2523160;54;20942;-71
2023/03/13 05:06:29;;;;;;;1.35;0.40;;;16.30;69.60;;;;;;2287790;55;20960;-71
2023/03/13 05:08:56;;;;;;;2.45;0.50;;;16.20;69.60;;;;;;2517639;54;21066;-70
2023/03/13 05:11:22;;;;;;;1.60;0.60;;;16.30;69.80;;;;;;2517085;54;20966;-69
2023/03/13 05:13:48;;;;;;;2.05;0.40;;;16.30;69.90;;;;;;2287720;55;21529;-70
2023/03/13 05:16:19;;;;;;;1.70;0.52;;;16.20;69.60;;;;;;2288181;55;22550;-69
2023/03/13 05:18:45;;;;;;;1.58;0.50;;;16.20;69.70;;;;;;2288055;55;21025;-70
2023/03/13 05:21:11;;;;;;;1.60;0.50;;;16.20;69.70;;;;;;2522706;54;20950;-69
2023/03/13 05:23:37;;;;;;;1.58;0.40;;;16.20;69.90;;;;;;2287929;55;20990;-68
2023/03/13 05:26:04;;;;;;;0.55;0.35;;;16.20;69.90;;;;;;2288798;55;20938;-68
2023/03/13 05:28:30;;;;;;;1.77;0.70;;;16.10;69.80;;;;;;2522565;54;20958;-67
2023/03/13 05:30:57;;;;;;;1.73;0.60;;;16.20;70.00;;;;;;2288565;55;21904;-69
2023/03/13 05:33:24;;;;;;;1.77;0.70;;;16.10;69.80;;;;;;2522842;54;20946;-69
2023/03/13 05:35:52;;;;;;;2.20;0.77;;;16.10;69.90;;;;;;2288502;55;21017;-69
2023/03/13 05:38:18;;;;;;;1.62;0.55;;;16.10;69.80;;;;;;2521615;54;20950;-69
2023/03/13 05:40:44;;;;;;;2.45;0.50;;;16.10;70.10;;;;;;2288248;55;20970;-71
2023/03/13 05:43:12;;;;;;;1.55;0.50;;;16.00;70.10;;;;;;2522777;54;21834;-69
2023/03/13 05:45:38;;;;;;;1.60;0.52;;;16.00;70.20;;;;;;2288674;55;20954;-71
2023/03/13 05:48:07;;;;;;;1.52;0.50;;;16.00;70.30;;;;;;2292331;55;20970;-69
2023/03/13 05:50:34;;;;;;;0.95;0.40;;;16.00;70.20;;;;;;2284430;55;21077;-69
2023/03/13 05:53:01;;;;;;;1.20;0.40;;;16.00;70.50;;;;;;2289405;55;21034;-72
2023/03/13 05:55:27;;;;;;;1.50;0.52;;;15.90;70.50;;;;;;2288256;55;20937;-71
2023/03/13 05:57:53;;;;;;;0.93;0.32;;;16.00;70.70;;;;;;2288305;55;21002;-69
2023/03/13 06:00:20;;;;;;;1.40;0.50;;;16.00;70.70;;;;;;2522534;54;21014;-69
2023/03/13 06:02:46;;;;;;;1.65;0.57;;;15.90;70.60;;;;;;2288090;55;20973;-69
2023/03/13 06:05:12;;;;;;;2.15;0.55;;;16.00;70.80;;;;;;2287880;55;21009;-70
2023/03/13 06:07:39;;;;;;;2.15;0.50;;;16.00;70.90;;;;;;2285808;55;21053;-70
2023/03/13 06:10:06;;;;;;;1.85;0.73;;;15.90;70.70;;;;;;2522545;54;20950;-70
2023/03/13 06:12:35;;;;;;;1.10;0.45;;;15.90;70.80;;;;;;2523068;54;20978;-69
2023/03/13 06:15:01;;;;;;;1.37;0.40;;;16.00;71.00;;;;;;2523466;54;21793;-71
2023/03/13 06:17:28;;;;;;;1.17;0.37;;;16.00;71.10;;;;;;2288565;55;20954;-71
2023/03/13 06:19:57;;;;;;;1.87;0.50;;;16.00;71.10;;;;;;2523002;54;20945;-72
2023/03/13 06:22:23;;;;;;;1.45;0.40;;;16.00;71.20;;;;;;2288107;55;20998;-67
2023/03/13 06:24:49;;;;;;;1.27;0.40;;;16.00;71.30;;;;;;2288722;55;21411;-67
2023/03/13 06:27:16;;;;;;;0.73;0.30;;;16.00;71.30;;;;;;2288713;55;20918;-69
2023/03/13 06:29:42;;;;;;;1.17;0.40;;;16.00;71.20;;;;;;2288159;55;21013;-68
2023/03/13 06:32:08;;;;;;;0.73;0.30;;;16.00;71.30;;;;;;2522735;54;20974;-67
2023/03/13 06:34:35;;;;;;;1.33;0.50;;;16.00;71.30;;;;;;2288005;55;21727;-68
2023/03/13 06:37:02;;;;;;;0.73;0.30;;;16.00;71.30;;;;;;2288525;55;20942;-68
2023/03/13 06:39:29;;;;;;;0.57;0.30;;;16.00;71.30;;;;;;2522700;54;20926;-69
2023/03/13 06:41:56;;;;;;;0.82;0.35;;;16.10;71.50;;;;;;2288578;55;20954;-71
2023/03/13 06:44:23;;;;;;;2.47;0.47;;;16.10;71.50;;;;;;2288183;55;20925;-69
2023/03/13 06:46:49;;;;;;;1.10;0.35;;;16.10;71.60;;;;;;2288226;55;21098;-69
2023/03/13 06:49:16;;;;;;;1.35;0.50;;;16.10;71.60;;;;;;2288152;55;21041;-70
2023/03/13 06:51:43;;;;;;;1.35;0.40;;;16.10;71.60;;;;;;2523100;54;20991;-70
2023/03/13 06:54:09;;;;;;;0.60;0.30;;;16.20;71.80;;;;;;2288811;55;20990;-68
2023/03/13 06:56:36;;;;;;;1.77;0.50;;;16.20;71.90;;;;;;2522108;54;21058;-73
2023/03/13 06:59:02;;;;;;;1.35;0.40;;;16.20;71.90;;;;;;2522798;54;20926;-71
2023/03/13 07:01:28;;;;;;;0.77;0.40;;;16.20;71.90;;;;;;2289783;55;20950;-72
2023/03/13 07:03:55;;;;;;;1.37;0.40;;;16.30;72.00;;;;;;2286023;55;21423;-69
2023/03/13 07:06:25;;;;;;;1.30;0.40;;;16.30;72.00;;;;;;2516143;54;21099;-72
2023/03/13 07:08:51;;;;;;;1.40;0.40;;;16.30;72.00;;;;;;2523038;54;20990;-72
2023/03/13 07:11:18;;;;;;;1.40;0.37;;;16.30;72.00;;;;;;2288388;55;20961;-72
2023/03/13 07:13:44;;;;;;;2.33;0.40;;;16.30;71.90;;;;;;2522823;54;20959;-70
2023/03/13 07:16:12;;;;;;;1.25;0.65;;;16.40;72.00;;;;;;2291169;55;21935;-70
2023/03/13 07:18:40;;;;;;;1.45;0.52;;;16.40;72.00;;;;;;2516344;54;20981;-70
2023/03/13 07:21:08;;;;;;;1.77;0.50;;;16.40;72.00;;;;;;2287365;55;20964;-71
2023/03/13 07:23:34;;;;;;;2.22;0.47;;;16.40;72.00;;;;;;2287050;55;21674;-72
2023/03/13 07:26:02;;;;;;;1.90;0.60;;;16.40;72.00;;;;;;2523424;54;21010;-72
2023/03/13 07:28:29;;;;;;;2.03;0.50;;;16.50;72.20;;;;;;2288288;55;21348;-69
2023/03/13 07:31:03;;;;;;;2.03;0.68;;;16.50;72.20;;;;;;2523017;54;21038;-71
2023/03/13 07:33:31;;;;;;;3.62;0.60;;;16.50;71.80;;;;;;2522935;54;21030;-69
2023/03/13 07:35:58;;;;;;;1.17;0.40;;;16.60;72.30;;;;;;2523152;54;21525;-69
2023/03/13 07:38:29;;;;;;;1.02;0.40;;;16.60;72.30;;;;;;2291107;55;21081;-69
2023/03/13 07:40:56;;;;;;;1.40;0.40;;;16.60;72.40;;;;;;2288416;55;21916;-72
2023/03/13 07:43:23;;;;;;;1.10;0.47;;;16.70;72.50;;;;;;2287672;55;20938;-71
2023/03/13 07:45:59;;;;;;;0.73;0.30;;;16.70;72.60;;;;;;2523514;54;20953;-70
2023/03/13 07:48:36;;;;;;;1.20;0.40;;;16.80;72.00;;;;;;2288616;55;20949;-68
2023/03/13 07:51:04;;;;;;;1.12;0.40;;;16.80;72.20;;;;;;2523313;54;20960;-68
2023/03/13 07:53:31;;;;;;;1.67;0.52;;;16.80;72.70;;;;;;2288571;55;20977;-69
2023/03/13 07:56:09;;;;;;;1.55;0.40;;;16.90;72.80;;;;;;2266149;55;21158;-70
2023/03/13 07:58:36;;;;;;;1.20;0.37;;;16.90;72.10;;;;;;2522726;54;20942;-69
2023/03/13 08:01:10;;;;;;;1.37;0.45;;;17.00;72.90;;;;;;2288942;55;20954;-72
2023/03/13 08:03:37;;;;;;;1.10;0.30;;;17.00;72.40;;;;;;2520338;54;21985;-72
2023/03/13 08:06:08;;;;;;;1.17;0.40;;;17.10;72.90;;;;;;2284694;55;20950;-67
2023/03/13 08:08:35;;;;;;;1.42;0.47;;;17.10;72.50;;;;;;2288644;55;21062;-68
2023/03/13 08:11:06;;;;;;;1.77;0.50;;;17.20;72.80;;;;;;2288711;55;20926;-68
2023/03/13 08:13:35;;;;;;;2.20;0.47;;;17.20;72.50;;;;;;2522752;54;21803;-72
2023/03/13 08:16:05;;;;;;;0.98;0.30;;;17.30;73.00;;;;;;2523167;54;20986;-67
2023/03/13 08:18:35;;;;;;;1.50;0.30;;;17.30;72.90;;;;;;2523089;54;20969;-68
2023/03/13 08:21:05;;;;;;;1.17;0.37;;;17.40;72.90;;;;;;2288755;55;21041;-68
2023/03/13 08:23:33;;;;;;;0.40;0.30;;;17.40;72.90;;;;;;2291068;55;20987;-71
2023/03/13 08:26:10;;;;;;;0.88;0.40;;;17.50;72.90;;;;;;2284200;55;21461;-70
2023/03/13 08:28:36;;;;;;;1.37;0.47;;;17.50;72.40;;;;;;2288276;55;20930;-69
2023/03/13 08:31:31;;;;;;;1.48;0.40;;;17.60;72.90;;;;;;2287195;55;21078;-70
2023/03/13 08:33:58;;;;;;;2.08;0.55;;;17.60;71.20;;;;;;2521912;54;21068;-68
2023/03/13 08:36:30;;;;;;;1.65;0.60;;;17.70;72.70;;;;;;2283695;55;21344;-69
2023/03/13 08:38:58;;;;;;;1.25;0.47;;;17.80;72.60;;;;;;2288982;55;20953;-71
2023/03/13 08:41:27;;;;;;;0.88;0.40;;;17.80;72.40;;;;;;2522697;54;20973;-68
2023/03/13 08:43:54;;;;;;;1.33;0.40;;;17.90;72.50;;;;;;2288468;55;21497;-68
2023/03/13 08:46:21;;;;;;;2.00;0.73;;;18.00;72.60;;;;;;2522392;54;20993;-71
2023/03/13 08:48:53;;;;;;;1.65;0.60;;;18.00;72.60;;;;;;2289059;55;21022;-68
2023/03/13 08:51:25;;;;;;;1.50;0.52;;;18.00;71.90;;;;;;2519277;54;21925;-70
2023/03/13 08:53:51;;;;;;;1.00;0.47;;;18.10;72.00;;;;;;2518559;54;20982;-69
2023/03/13 08:56:22;;;;;;;1.95;0.55;;;18.10;72.30;;;;;;2287492;55;20985;-71
2023/03/13 08:58:49;;;;;;;3.15;0.60;;;18.20;72.10;;;;;;2288438;55;20962;-68
2023/03/13 09:01:15;;;;;;;2.17;0.60;;;18.20;72.00;;;;;;2288447;55;21068;-67
2023/03/13 09:03:42;;;;;;;1.50;0.52;;;18.40;72.10;;;;;;2287699;55;20994;-67
2023/03/13 09:06:09;;;;;;;1.52;0.65;;;18.30;71.90;;;;;;2287954;55;21065;-69
2023/03/13 09:08:35;;;;;;;1.60;0.50;;;18.40;72.00;;;;;;2288079;55;20990;-70
2023/03/13 09:11:09;;;;;;;2.37;0.80;;;18.40;72.00;;;;;;2522770;54;20986;-68
2023/03/13 09:13:37;;;;;;;1.55;0.52;;;18.50;71.50;;;;;;2523075;54;21017;-68
2023/03/13 09:16:06;;;;;;;1.62;0.52;;;18.50;71.70;;;;;;2288433;55;20973;-68
2023/03/13 09:18:32;;;;;;;1.15;0.40;;;18.50;71.70;;;;;;2288866;55;21070;-68
2023/03/13 09:20:59;;;;;;;2.08;0.52;;;18.60;71.90;;;;;;2522825;54;21522;-69
2023/03/13 09:23:26;;;;;;;1.77;0.60;;;18.60;71.70;;;;;;2522577;54;21325;-70
2023/03/13 09:25:54;;;;;;;1.37;0.55;;;18.70;71.60;;;;;;2288017;55;20990;-68
2023/03/13 09:28:20;;;;;;;2.85;0.65;;;18.70;71.70;;;;;;2288316;55;21479;-68
2023/03/13 09:30:48;;;;;;;1.23;0.50;;;18.70;72.00;;;;;;2288144;55;20970;-69
2023/03/13 09:33:15;;;;;;;2.65;0.80;;;18.80;72.50;;;;;;2287698;55;21033;-70
2023/03/13 09:35:42;;;;;;;2.22;0.80;;;18.90;73.00;;;;;;2522513;54;21077;-70
2023/03/13 09:38:10;;;;;;;1.30;0.45;;;19.00;73.70;;;;;;2522761;54;20949;-69
2023/03/13 09:40:37;;;;;;;2.30;0.70;;;19.00;74.10;;;;;;2287534;55;20929;-69
2023/03/13 09:43:04;;;;;;;1.70;0.60;;;19.20;74.40;;;;;;2515994;54;20980;-69
2023/03/13 09:45:34;;;;;;;2.03;0.65;;;19.30;74.80;;;;;;2519699;54;21500;-68
2023/03/13 09:48:06;;;;;;;1.52;0.68;;;19.40;74.80;;;;;;2285204;55;21513;-69
2023/03/13 09:50:34;;;;;;;2.05;0.80;;;19.60;74.60;;;;;;2522650;54;20970;-69
2023/03/13 09:53:04;;;;;;;1.45;0.62;;;19.80;75.20;;;;;;2522737;54;20934;-68
2023/03/13 09:55:32;;;;;;;2.00;0.90;;;19.90;74.80;;;;;;2288045;55;20928;-69
2023/03/13 09:58:15;;;;;;;3.00;0.80;;;20.10;75.20;;;;;;2522475;54;21908;-70
2023/03/13 10:00:59;;;;;;;2.00;0.70;;;20.30;74.50;;;;;;2358824;54;1934665;-69
2023/03/13 10:03:30;;;;;;;1.48;0.73;;;20.50;72.80;;;;;;2522458;54;20965;-72
2023/03/13 10:05:59;;;;;;;1.58;0.52;;;20.60;74.10;;;;;;2289365;55;21039;-71
2023/03/13 10:08:29;;;;;;;2.10;0.62;;;20.70;73.80;;;;;;2283979;55;21062;-69
2023/03/13 10:12:15;;;;;;;2.30;0.70;;;20.80;73.70;;;;;;2522609;54;21337;-69
2023/03/13 10:15:05;;;;;;;1.42;0.50;;;21.00;71.30;;;;;;2522196;54;20954;-71
2023/03/13 10:17:33;;;;;;;1.60;0.60;;;21.10;71.90;;;;;;2287924;55;21478;-69
2023/03/13 10:20:32;;;;;;;1.52;0.80;;;21.20;72.50;;;;;;2522598;54;20994;-70
2023/03/13 10:23:01;;;;;;;1.35;0.52;;;21.30;70.30;;;;;;2288371;55;20969;-71
2023/03/13 10:25:34;;;;;;;1.45;0.60;;;21.30;72.20;;;;;;2287812;55;21300;-69
2023/03/13 10:28:00;;;;;;;1.00;0.50;;;21.40;71.00;;;;;;2522670;54;20938;-70
2023/03/13 10:30:31;;;;;;;1.87;0.40;;;21.50;71.80;;;;;;2522639;54;20973;-69
2023/03/13 10:33:40;;;;;;;1.40;0.57;;;21.60;71.10;;;;;;2288471;55;21065;-69
2023/03/13 10:36:12;;;;;;;1.42;0.60;;;21.60;68.80;;;;;;2288310;56;21486;-69
2023/03/13 10:38:49;;;;;;;1.35;0.55;;;21.70;70.60;;;;;;2265067;55;20977;-69
2023/03/13 10:41:24;;;;;;;1.08;0.40;;;21.80;70.30;;;;;;2288141;55;20950;-71
2023/03/13 10:44:14;;;;;;;1.83;0.40;;;21.80;70.20;;;;;;2522352;54;21029;-70
2023/03/13 10:46:44;;;;;;;1.20;0.40;;;21.80;68.90;;;;;;2287681;55;21028;-70
2023/03/13 10:49:18;;;;;;;1.75;0.52;;;21.90;70.10;;;;;;2522910;54;20957;-70
2023/03/13 10:51:52;;;;;;;1.05;0.40;;;21.90;70.20;;;;;;2287952;55;20946;-68
2023/03/13 10:54:25;;;;;;;1.35;0.50;;;21.90;70.10;;;;;;2288032;55;20969;-69
2023/03/13 10:57:06;;;;;;;2.35;0.57;;;21.90;70.10;;;;;;2288811;55;21035;-68
2023/03/13 10:59:33;;;;;;;1.58;0.40;;;22.00;70.80;;;;;;2520218;54;20981;-70
2023/03/13 11:01:59;;;;;;;0.73;0.40;;;22.10;71.00;;;;;;2288123;55;20950;-71
2023/03/13 11:04:33;;;;;;;1.05;0.37;;;22.10;71.00;;;;;;2288153;55;20922;-69
2023/03/13 11:07:04;;;;;;;1.92;0.50;;;22.10;70.00;;;;;;2287939;55;21010;-71
2023/03/13 11:09:32;;;;;;;0.75;0.30;;;22.30;70.40;;;;;;2288148;55;20998;-69
2023/03/13 11:12:04;;;;;;;1.25;0.45;;;22.30;71.20;;;;;;2522867;54;20962;-70
2023/03/13 11:14:31;;;;;;;1.30;0.50;;;22.40;70.50;;;;;;2522515;54;21009;-70
2023/03/13 11:17:44;;;;;;;1.90;0.60;;;22.50;71.50;;;;;;2288510;55;21033;-69
2023/03/13 11:20:39;;;;;;;1.17;0.45;;;22.60;68.90;;;;;;2288815;55;21058;-69
2023/03/13 11:24:13;;;;;;;1.55;0.50;;;22.70;69.10;;;;;;2288473;55;21033;-68
2023/03/13 11:29:20;;;;;;;0.55;0.30;;;22.80;69.30;;;;;;2522076;54;21081;-71
2023/03/13 11:31:53;;;;;;;1.40;0.47;;;23.10;70.10;;;;;;2287886;55;21744;-70
2023/03/13 11:34:59;;;;;;;1.55;0.47;;;23.20;72.50;;;;;;2287949;55;20926;-71
2023/03/13 11:37:27;;;;;;;4.50;0.60;;;23.30;69.10;;;;;;2522874;54;20958;-68
2023/03/13 11:43:14;;;;;;;0.90;0.40;;;23.30;71.90;;;;;;2289447;55;21478;-70
2023/03/13 11:48:55;;;;;;;1.92;0.50;;;23.50;70.90;;;;;;2287536;55;20965;-71
2023/03/13 11:51:44;;;;;;;0.90;0.30;;;23.80;69.30;;;;;;2287371;55;21092;-70
2023/03/13 11:55:18;;;;;;;1.87;0.50;;;23.90;71.80;;;;;;2290919;55;20930;-70
2023/03/13 12:00:00;;;;;;;1.27;0.57;;;24.00;68.70;;;;;;2290396;55;21030;-71
2023/03/13 12:02:42;;;;;;;1.25;0.50;;;24.10;67.70;;;;;;2292625;55;21469;-70
2023/03/13 12:05:11;;;;;;;0.70;0.40;;;24.10;68.70;;;;;;2289276;55;21907;-73
2023/03/13 12:07:52;;;;;;;1.42;0.43;;;24.20;71.60;;;;;;2523581;54;21334;-71
2023/03/13 12:10:24;;;;;;;1.42;0.43;;;24.20;71.00;;;;;;2289488;55;20993;-69
2023/03/13 12:13:05;;;;;;;1.65;0.65;;;24.30;70.60;;;;;;2288347;55;21420;-70
2023/03/13 12:15:39;;;;;;;1.37;0.40;;;24.40;70.40;;;;;;2288713;55;20957;-70
2023/03/13 12:20:07;;;;;;;1.65;0.57;;;24.40;69.60;;;;;;2288374;55;20938;-70
2023/03/13 12:24:19;;;;;;;0.65;0.30;;;24.50;67.80;;;;;;2522305;54;21030;-71
2023/03/13 12:26:48;;;;;;;0.77;0.32;;;24.60;67.80;;;;;;2287376;55;20954;-71
2023/03/13 12:30:18;;;;;;;1.33;0.40;;;24.70;70.90;;;;;;2289384;55;21030;-73
2023/03/13 12:34:29;;;;;;;1.42;0.50;;;24.70;67.10;;;;;;2516244;54;20956;-71
2023/03/13 12:37:19;;;;;;;1.23;0.57;;;24.80;67.70;;;;;;2286730;55;20978;-77
2023/03/13 12:40:03;;;;;;;1.33;0.60;;;24.90;68.00;;;;;;2287703;55;21782;-76
2023/03/13 12:42:55;;;;;;;1.37;0.40;;;24.90;69.00;;;;;;2288328;55;20986;-70
2023/03/13 12:45:23;;;;;;;1.23;0.50;;;25.00;66.20;;;;;;2522487;54;20978;-70
2023/03/13 12:57:12;;;;;;;0.95;0.45;;;25.00;68.80;;;;;;2515703;54;20993;-71
2023/03/13 12:59:45;;;;;;;0.70;0.28;;;25.10;67.80;;;;;;2521854;54;20938;-72
2023/03/13 13:02:26;;;;;;;0.90;0.40;;;25.20;69.40;;;;;;2522936;54;22288;-72
2023/03/13 13:04:53;;;;;;;2.15;0.60;;;25.20;66.90;;;;;;2522762;54;22090;-72
2023/03/13 13:07:39;;;;;;;1.58;0.60;;;25.20;68.70;;;;;;2522740;54;21592;-73
2023/03/13 13:10:25;;;;;;;1.98;0.60;;;25.20;65.10;;;;;;2287710;55;21483;-73
2023/03/13 13:13:16;;;;;;;2.25;0.60;;;25.20;65.20;;;;;;2522558;54;20970;-71
2023/03/13 13:15:46;;;;;;;1.50;0.50;;;25.20;64.10;;;;;;2289335;55;21749;-72
2023/03/13 13:18:34;;;;;;;2.87;0.50;;;25.20;66.70;;;;;;2286665;55;21022;-76
2023/03/13 13:21:20;;;;;;;1.35;0.50;;;25.20;64.40;;;;;;2522825;54;21026;-75
2023/03/13 13:23:48;;;;;;;2.03;0.82;;;25.20;64.10;;;;;;2519448;54;21015;-72
2023/03/13 13:27:26;;;;;;;1.95;0.75;;;25.20;66.20;;;;;;2285190;55;21034;-70
2023/03/13 13:29:54;;;;;;;2.55;0.70;;;25.30;62.20;;;;;;2288040;55;20961;-71
2023/03/13 13:37:44;;;;;;;1.45;0.50;;;25.20;64.70;;;;;;2522882;54;20934;-70
2023/03/13 13:42:55;;;;;;;1.37;0.50;;;25.30;62.40;;;;;;2287704;55;20934;-71
2023/03/13 13:45:24;;;;;;;1.73;0.60;;;25.20;63.70;;;;;;2288763;55;20981;-71
2023/03/13 13:47:50;;;;;;;1.85;0.60;;;25.20;65.90;;;;;;2287218;56;21450;-71
2023/03/13 13:50:25;;;;;;;1.30;0.47;;;25.20;66.50;;;;;;2287596;55;20970;-70
2023/03/13 13:52:51;;;;;;;2.28;0.47;;;25.20;65.20;;;;;;2522036;54;21032;-73
2023/03/13 13:58:49;;;;;;;1.83;0.60;;;25.20;66.70;;;;;;2289892;55;21043;-70